Time;durP1;ratioP1;P1;durP2;ratioP2;P2;SDS_P1;SDS_P2;PMS_P1;PMS_P2;Temp;Humidity;BMP_temperature;BMP_pressure;BME280_temperature;BME280_humidity;BME280_pressure;Samples;Min_cycle;Max_cycle;Signal;HPM_P1;HPM_P2
2022/10/16 00:00:56;;;;;;;2.40;2.20;;;15.40;99.90;;;;;;5048698;28;20255;-77
2022/10/16 00:03:22;;;;;;;2.57;2.37;;;15.40;99.90;;;;;;5052131;28;20523;-77
2022/10/16 00:05:47;;;;;;;1.70;1.60;;;15.40;99.90;;;;;;5047717;28;20171;-77
2022/10/16 00:08:13;;;;;;;1.80;1.70;;;15.40;99.90;;;;;;5050325;28;20196;-77
2022/10/16 00:10:39;;;;;;;2.43;2.23;;;15.40;99.90;;;;;;5052279;28;20176;-77
2022/10/16 00:13:05;;;;;;;3.47;2.00;;;15.40;99.90;;;;;;5052252;28;20271;-77
2022/10/16 00:15:36;;;;;;;3.07;2.00;;;15.50;99.90;;;;;;5046706;28;21015;-77
2022/10/16 00:18:02;;;;;;;1.70;1.60;;;15.50;99.90;;;;;;5034580;28;20202;-77
2022/10/16 00:20:27;;;;;;;1.80;1.70;;;15.50;99.90;;;;;;5044632;28;20930;-77
2022/10/16 00:22:53;;;;;;;2.10;1.57;;;15.60;99.90;;;;;;5050484;28;20434;-77
2022/10/16 00:25:18;;;;;;;2.23;2.10;;;15.50;99.90;;;;;;5043557;28;20689;-77
2022/10/16 00:27:44;;;;;;;2.43;1.97;;;15.60;99.90;;;;;;5053079;28;20228;-77
2022/10/16 00:30:10;;;;;;;2.00;1.90;;;15.60;99.90;;;;;;5054895;28;20365;-77
2022/10/16 00:32:35;;;;;;;1.97;1.60;;;15.60;99.90;;;;;;5055664;28;20270;-78
2022/10/16 00:35:03;;;;;;;1.80;1.67;;;15.60;99.90;;;;;;5053448;28;20169;-77
2022/10/16 00:37:28;;;;;;;3.53;2.20;;;15.60;99.90;;;;;;5054034;28;20160;-77
2022/10/16 00:39:54;;;;;;;3.10;2.17;;;15.70;99.90;;;;;;5054389;28;20417;-77
2022/10/16 00:42:19;;;;;;;2.43;1.83;;;15.70;99.90;;;;;;5055142;28;20218;-77
2022/10/16 00:44:47;;;;;;;1.97;1.70;;;15.60;99.90;;;;;;5067610;28;20195;-75
2022/10/16 00:47:24;;;;;;;2.00;1.50;;;15.60;99.90;;;;;;5071628;28;20237;-75
2022/10/16 00:49:54;;;;;;;2.40;1.90;;;15.60;99.90;;;;;;5058943;28;20499;-75
2022/10/16 00:52:20;;;;;;;1.90;1.80;;;15.60;99.90;;;;;;5058547;28;20408;-75
2022/10/16 00:54:47;;;;;;;2.03;1.70;;;15.60;99.90;;;;;;5049609;28;20857;-75
2022/10/16 00:57:13;;;;;;;1.73;1.63;;;15.60;99.90;;;;;;5052370;28;20173;-75
2022/10/16 00:59:40;;;;;;;1.93;1.60;;;15.60;99.90;;;;;;5044114;28;20420;-75
2022/10/16 01:02:11;;;;;;;1.63;1.53;;;15.60;99.90;;;;;;5051059;28;20439;-75
2022/10/16 01:04:41;;;;;;;1.50;1.40;;;15.60;99.90;;;;;;5051068;28;20550;-74
2022/10/16 01:07:30;;;;;;;1.53;1.43;;;15.60;99.90;;;;;;5041839;28;20426;-75
2022/10/16 01:10:14;;;;;;;2.23;2.13;;;15.60;99.90;;;;;;5051228;28;20495;-74
2022/10/16 01:12:57;;;;;;;1.87;1.73;;;15.60;99.90;;;;;;5049580;28;20437;-74
2022/10/16 01:15:48;;;;;;;1.80;1.57;;;15.60;99.90;;;;;;5015191;28;20429;-75
2022/10/16 01:18:25;;;;;;;1.40;1.30;;;15.60;99.90;;;;;;5038627;28;20424;-75
2022/10/16 01:20:59;;;;;;;1.40;1.30;;;15.60;99.90;;;;;;5015798;28;20414;-75
2022/10/16 01:23:24;;;;;;;1.67;1.50;;;15.60;99.90;;;;;;5039132;28;20516;-75
2022/10/16 01:26:08;;;;;;;1.47;1.37;;;15.50;99.90;;;;;;5050953;28;20446;-75
2022/10/16 01:29:18;;;;;;;1.63;1.43;;;15.50;99.90;;;;;;5051020;28;20550;-75
2022/10/16 01:31:49;;;;;;;2.50;1.73;;;15.50;99.90;;;;;;5050893;28;20445;-76
2022/10/16 01:34:20;;;;;;;6.23;1.60;;;15.50;99.90;;;;;;5050771;28;20808;-76
2022/10/16 01:36:52;;;;;;;1.60;1.50;;;15.50;99.90;;;;;;5050684;28;20401;-75
2022/10/16 01:39:22;;;;;;;1.40;1.30;;;15.50;99.90;;;;;;5051168;28;20882;-75
2022/10/16 01:42:13;;;;;;;2.67;1.60;;;15.50;99.90;;;;;;5049511;28;20789;-76
2022/10/16 01:44:40;;;;;;;2.50;1.50;;;15.50;99.90;;;;;;5049960;28;20459;-75
2022/10/16 01:47:10;;;;;;;1.43;1.33;;;15.50;99.90;;;;;;5050658;28;20418;-75
2022/10/16 01:49:37;;;;;;;2.20;2.00;;;15.50;99.90;;;;;;5042548;28;20456;-75
2022/10/16 01:52:07;;;;;;;1.40;1.30;;;15.50;99.90;;;;;;5043134;28;20545;-75
2022/10/16 01:54:36;;;;;;;1.63;1.53;;;15.40;99.90;;;;;;5043826;28;20906;-75
2022/10/16 01:57:06;;;;;;;2.00;1.17;;;15.50;99.90;;;;;;5050623;28;20409;-75
2022/10/16 01:59:35;;;;;;;1.40;1.30;;;15.50;99.90;;;;;;5050173;28;20418;-75
2022/10/16 02:02:07;;;;;;;1.93;1.57;;;15.50;99.90;;;;;;5055109;28;20498;-75
2022/10/16 02:04:54;;;;;;;2.00;1.90;;;15.50;99.90;;;;;;5054868;28;20434;-75
2022/10/16 02:07:20;;;;;;;1.43;1.33;;;15.40;99.90;;;;;;5049573;28;20407;-75
2022/10/16 02:09:46;;;;;;;2.90;1.50;;;15.50;99.90;;;;;;5055145;28;20995;-75
2022/10/16 02:12:27;;;;;;;2.23;1.70;;;15.40;99.90;;;;;;5055238;28;20179;-75
2022/10/16 02:14:53;;;;;;;1.63;1.40;;;15.50;99.90;;;;;;5023652;28;20184;-75
2022/10/16 02:17:20;;;;;;;1.80;1.70;;;15.50;99.90;;;;;;5037006;28;20410;-75
2022/10/16 02:19:48;;;;;;;1.60;1.50;;;15.50;99.90;;;;;;5045240;28;20425;-75
2022/10/16 02:22:29;;;;;;;1.53;1.40;;;15.50;99.90;;;;;;5052617;28;20422;-75
2022/10/16 02:25:24;;;;;;;2.03;1.83;;;15.50;99.90;;;;;;5022611;28;21075;-76
2022/10/16 02:28:00;;;;;;;1.40;1.30;;;15.50;99.90;;;;;;5053940;28;20442;-75
2022/10/16 02:30:37;;;;;;;1.67;1.57;;;15.50;99.90;;;;;;5053849;28;20422;-75
2022/10/16 02:33:06;;;;;;;1.50;1.40;;;15.50;99.90;;;;;;5052731;28;20443;-75
2022/10/16 02:35:33;;;;;;;1.37;1.23;;;15.50;99.90;;;;;;5045101;28;20406;-76
2022/10/16 02:37:59;;;;;;;2.20;1.40;;;15.50;99.90;;;;;;5046933;28;20546;-75
2022/10/16 02:40:26;;;;;;;2.03;1.93;;;15.50;99.90;;;;;;5053915;28;20420;-75
2022/10/16 02:42:53;;;;;;;1.80;1.70;;;15.50;99.90;;;;;;5021432;28;20561;-75
2022/10/16 02:45:19;;;;;;;1.57;1.43;;;15.50;99.90;;;;;;5055195;28;20800;-75
2022/10/16 02:47:44;;;;;;;2.13;1.93;;;15.50;99.90;;;;;;5058066;28;20419;-75
2022/10/16 02:50:10;;;;;;;1.50;1.40;;;15.50;99.90;;;;;;5048939;28;20179;-75
2022/10/16 02:52:35;;;;;;;1.80;1.47;;;15.50;99.90;;;;;;5056133;28;20192;-75
2022/10/16 02:55:01;;;;;;;2.30;1.83;;;15.50;99.90;;;;;;5049077;28;20172;-75
2022/10/16 02:57:27;;;;;;;1.57;1.47;;;15.50;99.90;;;;;;5053862;28;20169;-76
2022/10/16 02:59:52;;;;;;;2.00;1.80;;;15.50;99.90;;;;;;5053473;28;20188;-75
2022/10/16 03:02:18;;;;;;;3.13;1.93;;;15.50;99.90;;;;;;5052197;28;20188;-75
2022/10/16 03:04:44;;;;;;;1.70;1.60;;;15.40;99.90;;;;;;5053545;28;20178;-76
2022/10/16 03:07:09;;;;;;;1.43;1.33;;;15.40;99.90;;;;;;5048424;28;20234;-75
2022/10/16 03:09:35;;;;;;;1.67;1.40;;;15.40;99.90;;;;;;5053436;28;20566;-75
2022/10/16 03:12:00;;;;;;;2.00;1.50;;;15.40;99.90;;;;;;5052771;28;20182;-76
2022/10/16 03:14:26;;;;;;;1.67;1.40;;;15.30;99.90;;;;;;5053448;28;20203;-75
2022/10/16 03:16:52;;;;;;;2.10;1.70;;;15.30;99.90;;;;;;5040695;28;20211;-75
2022/10/16 03:19:17;;;;;;;1.67;1.40;;;15.30;99.90;;;;;;5042029;28;20226;-75
2022/10/16 03:21:43;;;;;;;1.80;1.70;;;15.20;99.90;;;;;;5055648;28;20209;-75
2022/10/16 03:24:09;;;;;;;1.70;1.60;;;15.20;99.90;;;;;;5058024;28;20202;-76
2022/10/16 03:26:34;;;;;;;2.00;1.50;;;15.20;99.90;;;;;;5068062;28;20177;-76
2022/10/16 03:29:02;;;;;;;1.30;1.20;;;15.20;99.90;;;;;;5068386;28;20212;-76
2022/10/16 03:31:27;;;;;;;1.40;1.30;;;15.10;99.90;;;;;;5059700;28;20171;-75
2022/10/16 03:33:53;;;;;;;1.47;1.37;;;15.10;99.90;;;;;;5052783;28;20454;-75
2022/10/16 03:36:18;;;;;;;1.77;1.63;;;15.10;99.90;;;;;;5052606;28;20556;-76
2022/10/16 03:38:44;;;;;;;2.23;2.03;;;15.00;99.90;;;;;;5052940;28;20251;-75
2022/10/16 03:41:09;;;;;;;1.60;1.50;;;15.00;99.90;;;;;;5051243;28;20552;-75
2022/10/16 03:43:35;;;;;;;2.10;1.50;;;15.00;99.90;;;;;;5052385;28;20217;-76
2022/10/16 03:46:01;;;;;;;1.87;1.50;;;14.90;99.90;;;;;;5052700;28;20177;-76
2022/10/16 03:48:26;;;;;;;2.23;1.97;;;14.90;99.90;;;;;;5043216;28;20600;-75
2022/10/16 03:50:52;;;;;;;2.43;1.90;;;14.90;99.90;;;;;;5044854;28;20635;-76
2022/10/16 03:53:17;;;;;;;2.00;1.70;;;14.90;99.90;;;;;;5052486;28;20213;-75
2022/10/16 03:55:44;;;;;;;3.87;1.60;;;14.90;99.90;;;;;;5045128;28;20176;-75
2022/10/16 03:58:10;;;;;;;2.60;1.63;;;14.90;99.90;;;;;;5052392;28;20219;-75
2022/10/16 04:00:39;;;;;;;1.90;1.80;;;14.80;99.90;;;;;;5050617;28;20757;-75
2022/10/16 04:03:04;;;;;;;1.57;1.47;;;14.80;99.90;;;;;;5052233;28;20430;-75
2022/10/16 04:05:30;;;;;;;1.70;1.60;;;14.80;99.90;;;;;;5050588;28;20472;-75
2022/10/16 04:07:55;;;;;;;2.10;1.80;;;14.80;99.90;;;;;;5046283;28;20233;-75
2022/10/16 04:10:21;;;;;;;1.90;1.80;;;14.80;99.90;;;;;;5052083;28;20627;-76
2022/10/16 04:12:46;;;;;;;1.60;1.50;;;14.80;99.90;;;;;;5051845;28;20673;-76
2022/10/16 04:15:12;;;;;;;2.93;1.63;;;14.80;99.90;;;;;;5049272;28;20295;-76
2022/10/16 04:17:37;;;;;;;1.87;1.70;;;14.80;99.90;;;;;;5035080;28;20284;-75
2022/10/16 04:20:03;;;;;;;2.97;2.47;;;14.80;99.90;;;;;;5045278;28;20537;-76
2022/10/16 04:22:29;;;;;;;1.63;1.53;;;14.80;99.90;;;;;;5050257;28;20182;-76
2022/10/16 04:24:54;;;;;;;2.20;2.10;;;14.80;99.90;;;;;;5051383;28;20403;-75
2022/10/16 04:27:20;;;;;;;2.47;2.00;;;14.80;99.90;;;;;;5051678;28;20256;-76
2022/10/16 04:29:45;;;;;;;2.07;1.87;;;14.80;99.90;;;;;;5051681;28;20551;-76
2022/10/16 04:32:11;;;;;;;1.83;1.73;;;14.80;99.90;;;;;;5051430;28;20553;-76
2022/10/16 04:34:38;;;;;;;4.70;2.13;;;14.80;99.90;;;;;;5049865;28;20175;-75
2022/10/16 04:37:04;;;;;;;1.80;1.70;;;14.80;99.90;;;;;;5037018;28;20260;-76
2022/10/16 04:39:30;;;;;;;2.53;1.90;;;14.70;99.90;;;;;;5051758;28;20989;-76
2022/10/16 04:41:55;;;;;;;2.10;1.90;;;14.70;99.90;;;;;;5051402;28;20180;-76
2022/10/16 04:44:21;;;;;;;2.77;2.00;;;14.70;99.90;;;;;;5051222;28;20225;-75
2022/10/16 04:46:46;;;;;;;2.03;1.93;;;14.70;99.90;;;;;;5051063;28;20248;-75
2022/10/16 04:49:12;;;;;;;2.30;1.87;;;14.70;99.90;;;;;;5051359;28;20709;-76
2022/10/16 04:51:37;;;;;;;1.70;1.60;;;14.70;99.90;;;;;;5051153;28;20249;-77
2022/10/16 04:54:03;;;;;;;3.00;1.83;;;14.70;99.90;;;;;;5051321;28;20192;-75
2022/10/16 04:56:28;;;;;;;2.23;2.03;;;14.60;99.90;;;;;;5051135;28;20195;-75
2022/10/16 04:58:54;;;;;;;2.23;1.77;;;14.60;99.90;;;;;;5051607;28;20226;-75
2022/10/16 05:01:19;;;;;;;2.40;2.13;;;14.60;99.90;;;;;;5051266;28;20228;-75
2022/10/16 05:03:45;;;;;;;1.77;1.67;;;14.60;99.90;;;;;;5051374;28;20199;-75
2022/10/16 05:06:11;;;;;;;2.30;2.10;;;14.60;99.90;;;;;;5051051;28;20657;-75
2022/10/16 05:08:36;;;;;;;1.70;1.60;;;14.60;99.90;;;;;;5051334;28;20445;-75
2022/10/16 05:11:02;;;;;;;2.17;1.97;;;14.50;99.90;;;;;;5049705;28;20164;-75
2022/10/16 05:13:27;;;;;;;2.23;2.10;;;14.50;99.90;;;;;;5051180;28;20277;-75
2022/10/16 05:15:53;;;;;;;1.80;1.50;;;14.50;99.90;;;;;;5042873;28;20249;-75
2022/10/16 05:18:19;;;;;;;2.83;2.40;;;14.50;99.90;;;;;;5034500;28;20165;-75
2022/10/16 05:20:44;;;;;;;2.60;1.53;;;14.50;99.90;;;;;;5050840;28;20211;-75
2022/10/16 05:23:10;;;;;;;2.33;2.13;;;14.50;99.90;;;;;;5050091;28;20573;-75
2022/10/16 05:25:36;;;;;;;2.43;2.23;;;14.50;99.90;;;;;;5050372;28;20188;-75
2022/10/16 05:28:02;;;;;;;1.73;1.63;;;14.60;99.90;;;;;;5051702;28;20556;-75
2022/10/16 05:30:27;;;;;;;4.27;2.00;;;14.60;99.90;;;;;;5051965;28;20406;-75
2022/10/16 05:32:53;;;;;;;2.80;2.30;;;14.60;99.90;;;;;;5052770;28;20425;-75
2022/10/16 05:35:19;;;;;;;2.37;2.17;;;14.60;99.90;;;;;;5056721;28;20163;-76
2022/10/16 05:37:45;;;;;;;2.10;1.90;;;14.60;99.90;;;;;;5054891;28;20172;-77
2022/10/16 05:40:12;;;;;;;2.20;2.00;;;14.60;99.90;;;;;;5061490;28;20407;-76
2022/10/16 05:42:38;;;;;;;2.07;1.97;;;14.60;99.90;;;;;;5058123;28;20940;-76
2022/10/16 05:45:06;;;;;;;2.07;1.97;;;14.70;99.90;;;;;;5058003;28;20410;-76
2022/10/16 05:47:31;;;;;;;2.73;2.30;;;14.70;99.90;;;;;;5058399;28;20406;-77
2022/10/16 05:49:57;;;;;;;3.30;1.90;;;14.70;99.90;;;;;;5056927;28;20460;-76
2022/10/16 05:52:22;;;;;;;2.03;1.90;;;14.80;99.90;;;;;;5061983;28;20171;-75
2022/10/16 05:54:48;;;;;;;2.70;2.07;;;14.80;99.90;;;;;;5063314;28;20218;-74
2022/10/16 05:57:14;;;;;;;2.20;2.00;;;14.80;99.90;;;;;;5059937;28;20164;-75
2022/10/16 05:59:39;;;;;;;1.67;1.57;;;14.80;99.90;;;;;;5071838;28;20209;-76
2022/10/16 06:02:05;;;;;;;2.70;2.50;;;14.80;99.90;;;;;;5065033;28;20172;-77
2022/10/16 06:04:30;;;;;;;1.60;1.50;;;14.80;99.90;;;;;;5057787;28;20201;-75
2022/10/16 06:07:00;;;;;;;2.13;1.93;;;14.80;99.90;;;;;;5073886;28;20175;-75
2022/10/16 06:09:25;;;;;;;2.40;2.20;;;14.80;99.90;;;;;;5080651;28;20178;-75
2022/10/16 06:11:51;;;;;;;2.70;2.23;;;14.80;99.90;;;;;;5077472;28;20437;-75
2022/10/16 06:14:25;;;;;;;2.70;2.40;;;14.80;99.90;;;;;;5078750;28;20203;-77
2022/10/16 06:16:51;;;;;;;2.47;2.27;;;14.80;99.90;;;;;;5056478;28;20187;-75
2022/10/16 06:19:17;;;;;;;2.30;2.10;;;14.90;99.90;;;;;;5062426;28;20409;-75
2022/10/16 06:21:43;;;;;;;1.93;1.80;;;14.90;99.90;;;;;;5062075;28;20691;-76
2022/10/16 06:24:09;;;;;;;2.10;1.90;;;14.80;99.90;;;;;;5054936;28;20527;-76
2022/10/16 06:26:34;;;;;;;2.33;2.13;;;14.90;99.90;;;;;;5056917;28;20266;-76
2022/10/16 06:29:00;;;;;;;2.33;2.00;;;14.90;99.90;;;;;;5057113;28;20934;-76
2022/10/16 06:31:30;;;;;;;2.77;2.20;;;15.00;99.90;;;;;;5057431;28;20165;-76
2022/10/16 06:33:56;;;;;;;3.80;2.13;;;15.00;99.90;;;;;;5057280;28;20253;-76
2022/10/16 06:36:22;;;;;;;2.40;2.07;;;15.00;99.90;;;;;;5051919;28;20457;-76
2022/10/16 06:38:48;;;;;;;3.13;2.03;;;15.10;99.90;;;;;;5056896;28;20826;-76
2022/10/16 06:41:16;;;;;;;2.00;1.90;;;15.10;99.90;;;;;;5057433;28;20472;-76
2022/10/16 06:43:44;;;;;;;2.60;2.40;;;15.20;99.90;;;;;;5056822;28;20251;-76
2022/10/16 06:46:12;;;;;;;6.13;2.37;;;15.10;99.90;;;;;;5055204;28;21040;-76
2022/10/16 06:48:38;;;;;;;4.63;2.30;;;15.20;99.90;;;;;;5053577;28;20466;-76
2022/10/16 06:51:10;;;;;;;2.20;2.10;;;15.20;99.90;;;;;;5053628;28;20414;-76
2022/10/16 06:53:38;;;;;;;4.93;2.03;;;15.20;99.90;;;;;;5052330;28;20535;-76
2022/10/16 06:56:14;;;;;;;2.10;2.00;;;15.20;99.90;;;;;;5053527;28;20842;-76
2022/10/16 06:58:41;;;;;;;7.73;2.40;;;15.20;99.90;;;;;;5053676;28;20410;-76
2022/10/16 07:01:07;;;;;;;3.90;2.13;;;15.30;99.90;;;;;;5052306;28;20506;-76
2022/10/16 07:03:33;;;;;;;2.00;1.80;;;15.30;99.90;;;;;;5053210;28;20446;-76
2022/10/16 07:06:05;;;;;;;2.60;2.40;;;15.40;99.90;;;;;;5053308;28;20424;-76
2022/10/16 07:08:33;;;;;;;1.90;1.80;;;15.50;99.90;;;;;;5053663;28;20197;-76
2022/10/16 07:11:07;;;;;;;3.27;2.00;;;15.60;99.90;;;;;;5049427;28;20411;-76
2022/10/16 07:13:40;;;;;;;2.00;1.90;;;15.70;99.90;;;;;;5053216;28;20437;-76
2022/10/16 07:16:09;;;;;;;1.87;1.77;;;15.80;99.90;;;;;;5043080;28;20482;-76
2022/10/16 07:18:35;;;;;;;2.70;1.40;;;15.90;99.90;;;;;;5037091;28;20425;-76
2022/10/16 07:21:25;;;;;;;1.83;1.73;;;16.00;99.90;;;;;;5053215;28;20409;-75
2022/10/16 07:23:51;;;;;;;2.00;1.77;;;16.10;99.90;;;;;;5051119;28;20425;-76
2022/10/16 07:26:17;;;;;;;1.40;1.30;;;16.20;99.90;;;;;;5052954;28;20772;-76
2022/10/16 07:28:43;;;;;;;4.70;1.93;;;16.10;99.90;;;;;;5052922;28;20451;-76
2022/10/16 07:31:11;;;;;;;1.90;1.57;;;16.20;99.90;;;;;;5053148;28;20183;-76
2022/10/16 07:33:39;;;;;;;2.93;1.70;;;16.30;99.90;;;;;;5052676;28;20248;-76
2022/10/16 07:36:05;;;;;;;1.90;1.50;;;16.40;99.90;;;;;;5052346;28;20463;-76
2022/10/16 07:38:31;;;;;;;3.20;1.40;;;16.40;99.90;;;;;;5052768;28;20503;-75
2022/10/16 07:40:58;;;;;;;1.77;1.50;;;16.40;99.90;;;;;;5053032;28;20440;-74
2022/10/16 07:43:25;;;;;;;1.40;1.30;;;16.40;99.90;;;;;;5052864;28;20261;-75
2022/10/16 07:45:51;;;;;;;6.30;1.37;;;16.60;99.90;;;;;;5053777;28;20414;-75
2022/10/16 07:48:17;;;;;;;2.63;1.70;;;16.70;99.90;;;;;;5039161;28;20468;-76
2022/10/16 07:50:44;;;;;;;2.90;1.80;;;16.70;99.90;;;;;;5052361;28;20412;-73
2022/10/16 07:53:11;;;;;;;1.60;1.30;;;16.80;99.90;;;;;;5052060;28;20436;-78
2022/10/16 07:55:37;;;;;;;1.57;1.47;;;16.70;99.90;;;;;;5053129;28;20523;-75
2022/10/16 07:58:03;;;;;;;2.23;1.60;;;16.70;99.90;;;;;;5052406;28;20783;-72
2022/10/16 08:00:28;;;;;;;1.40;1.30;;;16.80;99.90;;;;;;5052567;28;20417;-74
2022/10/16 08:02:54;;;;;;;2.17;1.27;;;16.80;99.90;;;;;;5052366;28;20435;-75
2022/10/16 08:05:20;;;;;;;1.60;1.50;;;16.60;99.90;;;;;;5052095;28;20179;-75
2022/10/16 08:07:49;;;;;;;1.27;1.17;;;16.70;99.90;;;;;;5052317;28;20185;-75
2022/10/16 08:10:17;;;;;;;1.37;1.27;;;16.80;99.90;;;;;;5049629;28;20171;-75
2022/10/16 08:12:43;;;;;;;1.97;1.57;;;16.90;99.90;;;;;;5051601;28;20429;-75
2022/10/16 08:15:09;;;;;;;1.87;1.67;;;16.90;99.90;;;;;;5050238;28;20857;-75
2022/10/16 08:17:34;;;;;;;1.20;1.10;;;17.00;99.90;;;;;;5030681;28;20174;-75
2022/10/16 08:20:00;;;;;;;1.93;1.83;;;17.00;99.90;;;;;;5045250;28;20412;-75
2022/10/16 08:22:26;;;;;;;1.77;1.50;;;17.00;99.90;;;;;;5050902;28;20171;-75
2022/10/16 08:24:51;;;;;;;1.70;1.60;;;17.10;99.90;;;;;;5051938;28;20272;-75
2022/10/16 08:27:16;;;;;;;1.43;1.33;;;17.00;99.90;;;;;;5052198;28;20176;-75
2022/10/16 08:29:42;;;;;;;1.83;1.13;;;17.10;99.90;;;;;;5051770;28;20206;-75
2022/10/16 08:32:08;;;;;;;1.43;1.33;;;17.10;99.90;;;;;;5050581;28;20176;-75
2022/10/16 08:34:33;;;;;;;1.30;1.20;;;17.20;99.90;;;;;;5050638;28;20187;-75
2022/10/16 08:36:59;;;;;;;2.20;1.43;;;17.10;99.90;;;;;;5035341;28;20170;-75
2022/10/16 08:39:24;;;;;;;1.43;1.33;;;17.10;99.90;;;;;;5051701;28;20252;-74
2022/10/16 08:42:27;;;;;;;1.20;1.10;;;17.20;99.90;;;;;;5051901;28;20683;-75
2022/10/16 08:45:14;;;;;;;1.30;1.20;;;17.30;99.90;;;;;;5019520;28;20590;-75
2022/10/16 08:48:05;;;;;;;1.50;1.37;;;17.40;99.90;;;;;;5050002;28;20498;-74
2022/10/16 08:50:33;;;;;;;1.30;1.20;;;17.40;99.90;;;;;;5031712;28;20423;-75
2022/10/16 08:52:59;;;;;;;1.73;1.63;;;17.50;99.90;;;;;;5050210;28;20429;-75
2022/10/16 08:55:29;;;;;;;1.40;1.30;;;17.60;99.90;;;;;;5044362;28;20805;-75
2022/10/16 08:57:54;;;;;;;1.40;0.97;;;17.50;99.90;;;;;;5051643;28;20756;-75
2022/10/16 09:00:20;;;;;;;1.40;1.30;;;17.60;99.90;;;;;;5051449;28;20419;-75
2022/10/16 09:02:56;;;;;;;1.37;1.20;;;17.70;99.90;;;;;;5051477;28;20287;-75
2022/10/16 09:05:46;;;;;;;6.93;2.07;;;17.70;99.90;;;;;;5052323;28;20403;-74
2022/10/16 09:08:14;;;;;;;2.67;1.77;;;17.60;99.90;;;;;;5046055;28;20570;-74
2022/10/16 09:10:59;;;;;;;1.20;1.03;;;17.70;99.90;;;;;;5045421;28;20416;-73
2022/10/16 09:13:34;;;;;;;1.60;1.10;;;17.90;99.90;;;;;;5051340;28;20426;-75
2022/10/16 09:16:17;;;;;;;1.30;1.20;;;18.10;99.90;;;;;;5042382;28;20434;-75
2022/10/16 09:18:48;;;;;;;1.10;1.00;;;18.40;99.90;;;;;;5033733;28;20432;-75
2022/10/16 09:21:33;;;;;;;1.30;1.20;;;18.70;99.90;;;;;;5050908;28;20508;-75
2022/10/16 09:24:09;;;;;;;1.60;1.40;;;18.50;99.90;;;;;;5051715;28;20428;-75
2022/10/16 09:26:35;;;;;;;1.40;1.30;;;18.20;99.90;;;;;;5051007;28;20770;-74
2022/10/16 09:29:00;;;;;;;1.83;1.20;;;18.30;99.90;;;;;;5051005;28;20538;-75
2022/10/16 09:31:26;;;;;;;1.20;0.97;;;18.30;99.90;;;;;;5051034;28;20198;-74
2022/10/16 09:34:01;;;;;;;241.03;162.43;;;18.50;99.90;;;;;;5051035;28;20201;-72
2022/10/16 09:36:28;;;;;;;8.43;6.40;;;18.70;99.90;;;;;;5034608;28;20507;-71
2022/10/16 09:39:06;;;;;;;1.50;1.40;;;18.80;99.90;;;;;;5050858;28;20421;-71
2022/10/16 09:41:35;;;;;;;11.30;8.00;;;18.80;99.90;;;;;;5051033;28;20408;-73
2022/10/16 09:44:03;;;;;;;19.00;13.33;;;18.90;99.90;;;;;;5050846;28;20889;-72
2022/10/16 09:46:36;;;;;;;6.87;5.63;;;18.90;99.90;;;;;;5050550;28;20496;-72
2022/10/16 09:49:23;;;;;;;11.60;8.80;;;19.00;99.90;;;;;;5043533;28;20459;-72
2022/10/16 09:51:49;;;;;;;40.80;27.93;;;18.90;99.90;;;;;;5043855;28;20500;-72
2022/10/16 09:54:16;;;;;;;26.90;18.33;;;19.10;99.90;;;;;;5045885;28;20837;-72
2022/10/16 09:56:42;;;;;;;1.83;1.47;;;19.00;99.90;;;;;;5049304;28;20499;-72
2022/10/16 09:59:13;;;;;;;17.83;13.73;;;18.80;99.90;;;;;;5051006;28;20588;-72
2022/10/16 10:01:42;;;;;;;3.07;2.33;;;18.90;99.90;;;;;;5050731;28;20952;-72
2022/10/16 10:04:08;;;;;;;1.90;1.63;;;18.90;99.90;;;;;;5050577;28;20941;-72
2022/10/16 10:06:39;;;;;;;7.47;5.63;;;19.10;99.90;;;;;;5045470;28;20436;-72
2022/10/16 10:09:16;;;;;;;4.37;3.93;;;19.20;99.90;;;;;;5051141;28;20855;-74
2022/10/16 10:11:54;;;;;;;8.07;5.63;;;19.30;99.90;;;;;;5046977;28;20398;-72
2022/10/16 10:14:42;;;;;;;8.17;5.50;;;19.40;99.90;;;;;;5050455;28;20798;-73
2022/10/16 10:17:20;;;;;;;3.77;2.10;;;19.40;99.90;;;;;;5031463;28;20809;-73
2022/10/16 10:20:15;;;;;;;29.60;21.80;;;19.20;99.90;;;;;;5041569;28;20929;-73
2022/10/16 10:22:47;;;;;;;11.43;8.80;;;19.20;99.90;;;;;;5052577;28;20422;-71
2022/10/16 10:25:13;;;;;;;2.63;2.07;;;19.40;99.90;;;;;;5054124;28;20789;-72
2022/10/16 10:28:03;;;;;;;1.20;1.10;;;19.40;99.90;;;;;;5054052;28;20418;-72
2022/10/16 10:30:39;;;;;;;3.00;2.47;;;19.50;99.90;;;;;;5054595;28;20177;-72
2022/10/16 10:33:35;;;;;;;1.50;1.27;;;19.40;99.90;;;;;;5055343;28;20422;-71
2022/10/16 10:36:13;;;;;;;2.27;2.03;;;19.20;99.90;;;;;;5052631;28;20491;-71
2022/10/16 10:38:52;;;;;;;1.10;1.00;;;19.10;99.90;;;;;;5053939;28;20409;-72
2022/10/16 10:41:24;;;;;;;0.93;0.90;;;19.00;99.90;;;;;;5055242;28;20479;-73
2022/10/16 10:43:58;;;;;;;4.97;2.20;;;19.20;99.90;;;;;;5054313;28;20471;-72
2022/10/16 10:46:44;;;;;;;3.10;1.93;;;19.00;99.90;;;;;;5053495;28;20911;-74
2022/10/16 10:49:31;;;;;;;3.10;2.60;;;18.90;99.90;;;;;;5034515;28;20985;-72
2022/10/16 10:52:21;;;;;;;4.60;2.90;;;19.30;99.90;;;;;;5046482;28;20405;-73
2022/10/16 10:55:08;;;;;;;1.10;1.00;;;19.50;99.90;;;;;;5044178;28;20411;-72
2022/10/16 10:57:55;;;;;;;1.23;0.90;;;19.60;99.90;;;;;;5052387;28;20497;-73
2022/10/16 11:00:47;;;;;;;1.17;1.03;;;19.30;99.90;;;;;;5053988;28;20489;-74
2022/10/16 11:03:19;;;;;;;1.30;0.93;;;19.50;99.90;;;;;;5027804;28;20420;-72
2022/10/16 11:05:49;;;;;;;2.30;1.20;;;19.90;99.90;;;;;;5052819;28;20405;-77
2022/10/16 11:08:23;;;;;;;1.20;1.10;;;19.90;99.90;;;;;;5049303;28;20485;-72
2022/10/16 11:11:03;;;;;;;2.30;1.90;;;20.00;99.90;;;;;;5049989;28;20419;-76
2022/10/16 11:13:32;;;;;;;1.00;0.90;;;20.20;99.90;;;;;;5053698;28;20488;-70
2022/10/16 11:16:02;;;;;;;1.43;1.00;;;20.20;99.90;;;;;;5044687;28;21000;-72
2022/10/16 11:18:45;;;;;;;2.63;2.13;;;20.20;99.90;;;;;;5034301;28;20503;-73
2022/10/16 11:21:14;;;;;;;3.37;2.57;;;20.10;99.90;;;;;;5054345;28;20420;-72
2022/10/16 11:23:52;;;;;;;1.83;1.20;;;20.00;99.90;;;;;;5053323;28;20801;-76
2022/10/16 11:26:24;;;;;;;3.10;2.50;;;19.80;99.90;;;;;;5054382;28;20961;-72
2022/10/16 11:28:55;;;;;;;4.47;3.30;;;20.00;99.90;;;;;;5053699;28;20507;-72
2022/10/16 11:31:45;;;;;;;1.73;1.50;;;20.50;99.90;;;;;;5057100;28;20429;-73
2022/10/16 11:34:36;;;;;;;1.63;1.10;;;20.30;99.90;;;;;;5053478;28;20521;-73
2022/10/16 11:37:16;;;;;;;40.57;29.80;;;20.10;99.90;;;;;;5023385;28;20848;-72
2022/10/16 11:39:44;;;;;;;5.17;4.40;;;20.00;99.90;;;;;;5053350;28;20406;-74
2022/10/16 11:42:36;;;;;;;38.63;24.30;;;20.00;99.90;;;;;;5052814;28;20412;-73
2022/10/16 11:45:20;;;;;;;18.83;13.30;;;19.80;99.90;;;;;;5022899;28;20418;-73
2022/10/16 11:47:51;;;;;;;13.97;9.63;;;19.70;99.90;;;;;;5052876;28;20412;-73
2022/10/16 11:50:31;;;;;;;50.63;37.10;;;19.80;99.90;;;;;;5052734;28;20437;-72
2022/10/16 11:53:02;;;;;;;16.17;11.47;;;19.80;99.90;;;;;;5021930;28;20423;-72
2022/10/16 11:55:39;;;;;;;11.33;9.33;;;19.80;99.90;;;;;;5052966;28;20426;-73
2022/10/16 11:58:14;;;;;;;27.80;20.00;;;19.80;99.90;;;;;;5052656;28;20415;-74
2022/10/16 12:00:47;;;;;;;13.10;10.90;;;19.80;99.90;;;;;;5052779;28;20406;-73
2022/10/16 12:03:36;;;;;;;28.80;18.37;;;19.60;99.90;;;;;;5052582;28;20413;-74
2022/10/16 12:06:31;;;;;;;8.87;7.03;;;19.60;99.90;;;;;;5052560;28;20440;-73
2022/10/16 12:08:59;;;;;;;25.30;19.97;;;19.60;99.90;;;;;;5021494;28;20478;-75
2022/10/16 12:11:28;;;;;;;4.23;3.40;;;19.60;99.90;;;;;;5048538;28;20413;-72
2022/10/16 12:14:10;;;;;;;7.40;5.00;;;19.70;99.90;;;;;;5052159;28;20773;-72
2022/10/16 12:16:54;;;;;;;16.90;13.17;;;19.60;99.90;;;;;;5038090;28;20411;-72
2022/10/16 12:19:21;;;;;;;5.47;3.10;;;19.60;99.90;;;;;;5039821;28;20783;-73
2022/10/16 12:21:47;;;;;;;3.23;2.80;;;19.70;99.90;;;;;;5052151;28;20811;-72
2022/10/16 12:24:34;;;;;;;2.27;1.77;;;19.80;99.90;;;;;;5051305;28;20436;-72
2022/10/16 12:27:00;;;;;;;3.83;3.17;;;19.70;99.90;;;;;;5021117;28;20409;-73
2022/10/16 12:29:44;;;;;;;3.60;3.17;;;19.80;99.90;;;;;;5051786;28;20989;-72
2022/10/16 12:32:30;;;;;;;4.50;3.80;;;19.90;99.90;;;;;;5052750;28;20402;-72
2022/10/16 12:34:57;;;;;;;12.60;9.73;;;19.90;99.90;;;;;;5016338;28;20422;-72
2022/10/16 12:37:36;;;;;;;9.40;7.77;;;20.10;99.90;;;;;;5039873;28;20488;-73
2022/10/16 12:40:23;;;;;;;4.50;3.97;;;20.10;99.90;;;;;;5053501;28;20487;-72
2022/10/16 12:42:49;;;;;;;1.77;1.40;;;20.10;99.90;;;;;;5051616;28;20439;-74
2022/10/16 12:45:29;;;;;;;2.20;0.93;;;20.00;99.90;;;;;;5070492;23;20461;-69
2022/10/16 12:47:56;;;;;;;1.40;1.20;;;19.90;99.90;;;;;;5035535;28;20224;-69
2022/10/16 12:50:36;;;;;;;0.80;0.80;;;20.00;99.90;;;;;;5041190;28;20410;-76
2022/10/16 12:53:16;;;;;;;1.10;1.00;;;20.10;99.90;;;;;;5022231;28;20407;-69
2022/10/16 12:56:03;;;;;;;1.00;0.90;;;20.10;99.90;;;;;;5044504;28;20427;-72
2022/10/16 12:58:58;;;;;;;0.90;0.83;;;20.10;99.90;;;;;;5051635;28;20475;-70
2022/10/16 13:01:55;;;;;;;1.27;1.00;;;20.10;99.90;;;;;;5051718;28;20420;-70
2022/10/16 13:04:31;;;;;;;0.80;0.80;;;20.10;99.90;;;;;;5051864;28;20408;-73